sensor_id;sensor_type;location;lat;lon;timestamp;pressure;altitude;pressure_sealevel;temperature;humidity
5814;BME280;2933;52.302;8.134;2022-09-09T00:04:38;99937.31;;;13.23;nan
5814;BME280;2933;52.302;8.134;2022-09-09T00:09:45;99911.41;;;12.98;nan
5814;BME280;2933;52.302;8.134;2022-09-09T00:14:51;99935.06;;;13.19;nan
5814;BME280;2933;52.302;8.134;2022-09-09T00:20:02;99931.19;;;13.02;nan
5814;BME280;2933;52.302;8.134;2022-09-09T00:25:11;99940.75;;;13.24;nan
5814;BME280;2933;52.302;8.134;2022-09-09T00:30:19;99928.94;;;13.41;nan
5814;BME280;2933;52.302;8.134;2022-09-09T00:35:26;99926.97;;;13.54;nan
5814;BME280;2933;52.302;8.134;2022-09-09T00:40:33;99905.19;;;13.43;nan
5814;BME280;2933;52.302;8.134;2022-09-09T00:45:52;99923.13;;;13.58;nan
5814;BME280;2933;52.302;8.134;2022-09-09T00:51:04;99920.13;;;13.42;nan
5814;BME280;2933;52.302;8.134;2022-09-09T00:56:13;99901.06;;;13.29;nan
5814;BME280;2933;52.302;8.134;2022-09-09T01:01:15;99932.03;;;13.35;nan
5814;BME280;2933;52.302;8.134;2022-09-09T01:06:22;99917.06;;;13.25;nan
5814;BME280;2933;52.302;8.134;2022-09-09T01:11:33;99923.03;;;13.16;nan
5814;BME280;2933;52.302;8.134;2022-09-09T01:16:38;99918.72;;;13.27;nan
5814;BME280;2933;52.302;8.134;2022-09-09T01:21:50;99917.06;;;13.25;nan
5814;BME280;2933;52.302;8.134;2022-09-09T01:26:59;99913.31;;;13.39;nan
5814;BME280;2933;52.302;8.134;2022-09-09T01:32:38;99904.38;;;13.42;nan
5814;BME280;2933;52.302;8.134;2022-09-09T01:37:40;99902.91;;;13.49;nan
5814;BME280;2933;52.302;8.134;2022-09-09T01:42:43;99901.16;;;13.38;nan
5814;BME280;2933;52.302;8.134;2022-09-09T01:47:45;99906.41;;;13.38;nan
5814;BME280;2933;52.302;8.134;2022-09-09T01:52:50;99908.22;;;13.38;nan
5814;BME280;2933;52.302;8.134;2022-09-09T01:58:04;99915.44;;;13.46;nan
5814;BME280;2933;52.302;8.134;2022-09-09T02:03:18;99885.28;;;13.40;nan
5814;BME280;2933;52.302;8.134;2022-09-09T02:08:25;99917.28;;;13.66;nan
5814;BME280;2933;52.302;8.134;2022-09-09T02:13:37;99903.59;;;13.51;nan
5814;BME280;2933;52.302;8.134;2022-09-09T02:18:48;99948.19;;;13.84;nan
5814;BME280;2933;52.302;8.134;2022-09-09T02:23:52;99950.81;;;13.84;nan
5814;BME280;2933;52.302;8.134;2022-09-09T02:28:58;99912.91;;;13.55;nan
5814;BME280;2933;52.302;8.134;2022-09-09T02:34:03;99952.34;;;13.86;nan
5814;BME280;2933;52.302;8.134;2022-09-09T02:39:08;99948.94;;;13.96;nan
5814;BME280;2933;52.302;8.134;2022-09-09T02:44:12;99917.00;;;13.90;nan
5814;BME280;2933;52.302;8.134;2022-09-09T02:49:18;99928.31;;;13.91;nan
5814;BME280;2933;52.302;8.134;2022-09-09T02:54:26;99920.63;;;13.99;nan
5814;BME280;2933;52.302;8.134;2022-09-09T02:59:30;99925.19;;;13.97;nan
5814;BME280;2933;52.302;8.134;2022-09-09T03:04:32;99936.16;;;14.02;nan
5814;BME280;2933;52.302;8.134;2022-09-09T03:09:34;99946.47;;;13.94;nan
5814;BME280;2933;52.302;8.134;2022-09-09T03:14:37;99949.97;;;14.04;nan
5814;BME280;2933;52.302;8.134;2022-09-09T03:19:39;99948.78;;;14.09;nan
5814;BME280;2933;52.302;8.134;2022-09-09T03:24:41;99955.63;;;14.00;nan
5814;BME280;2933;52.302;8.134;2022-09-09T03:29:44;99915.53;;;13.77;nan
5814;BME280;2933;52.302;8.134;2022-09-09T03:34:46;99956.00;;;13.95;nan
5814;BME280;2933;52.302;8.134;2022-09-09T03:39:49;99958.81;;;13.82;nan
5814;BME280;2933;52.302;8.134;2022-09-09T03:44:52;99935.16;;;13.61;nan
5814;BME280;2933;52.302;8.134;2022-09-09T03:49:54;99952.66;;;13.72;nan
5814;BME280;2933;52.302;8.134;2022-09-09T03:54:56;99926.78;;;13.35;nan
5814;BME280;2933;52.302;8.134;2022-09-09T03:59:59;99947.31;;;13.41;nan
5814;BME280;2933;52.302;8.134;2022-09-09T04:05:01;99944.81;;;13.39;nan
5814;BME280;2933;52.302;8.134;2022-09-09T04:10:03;99944.31;;;13.46;nan
5814;BME280;2933;52.302;8.134;2022-09-09T04:15:07;99948.25;;;13.40;nan
5814;BME280;2933;52.302;8.134;2022-09-09T04:20:09;99933.22;;;13.42;nan
5814;BME280;2933;52.302;8.134;2022-09-09T04:25:12;99948.56;;;13.58;nan
5814;BME280;2933;52.302;8.134;2022-09-09T04:30:15;99945.94;;;13.58;nan
5814;BME280;2933;52.302;8.134;2022-09-09T04:35:17;99939.91;;;13.67;nan
5814;BME280;2933;52.302;8.134;2022-09-09T04:40:20;99907.66;;;13.55;nan
5814;BME280;2933;52.302;8.134;2022-09-09T04:45:23;99943.56;;;13.76;nan
5814;BME280;2933;52.302;8.134;2022-09-09T04:50:26;99958.94;;;13.81;nan
5814;BME280;2933;52.302;8.134;2022-09-09T04:55:28;99961.06;;;13.87;nan
5814;BME280;2933;52.302;8.134;2022-09-09T05:00:32;99958.56;;;13.85;nan
5814;BME280;2933;52.302;8.134;2022-09-09T05:05:34;99962.66;;;13.99;nan
5814;BME280;2933;52.302;8.134;2022-09-09T05:10:37;99949.00;;;13.84;nan
5814;BME280;2933;52.302;8.134;2022-09-09T05:15:41;99961.69;;;14.00;nan
5814;BME280;2933;52.302;8.134;2022-09-09T05:20:43;99954.41;;;14.04;nan
5814;BME280;2933;52.302;8.134;2022-09-09T05:25:54;99903.28;;;13.66;nan
5814;BME280;2933;52.302;8.134;2022-09-09T05:30:59;99907.72;;;13.86;nan
5814;BME280;2933;52.302;8.134;2022-09-09T05:36:06;99934.66;;;13.88;nan
5814;BME280;2933;52.302;8.134;2022-09-09T05:41:08;99960.47;;;14.04;nan
5814;BME280;2933;52.302;8.134;2022-09-09T05:46:15;99917.00;;;13.90;nan
5814;BME280;2933;52.302;8.134;2022-09-09T05:51:19;99911.03;;;13.88;nan
5814;BME280;2933;52.302;8.134;2022-09-09T05:56:26;99936.84;;;14.04;nan
5814;BME280;2933;52.302;8.134;2022-09-09T06:01:31;99939.72;;;14.01;nan
5814;BME280;2933;52.302;8.134;2022-09-09T06:06:35;99924.13;;;14.00;nan
5814;BME280;2933;52.302;8.134;2022-09-09T06:11:40;99966.34;;;14.39;nan
5814;BME280;2933;52.302;8.134;2022-09-09T06:16:47;99944.22;;;14.42;nan
5814;BME280;2933;52.302;8.134;2022-09-09T06:21:53;99939.03;;;14.61;nan
5814;BME280;2933;52.302;8.134;2022-09-09T06:27:01;99943.88;;;14.97;nan
5814;BME280;2933;52.302;8.134;2022-09-09T06:32:14;99970.31;;;15.05;nan
5814;BME280;2933;52.302;8.134;2022-09-09T06:37:21;99954.13;;;15.00;nan
5814;BME280;2933;52.302;8.134;2022-09-09T06:42:25;99940.00;;;15.01;nan
5814;BME280;2933;52.302;8.134;2022-09-09T06:47:36;99920.19;;;14.87;nan
5814;BME280;2933;52.302;8.134;2022-09-09T06:52:46;99927.09;;;14.88;nan
5814;BME280;2933;52.302;8.134;2022-09-09T06:57:54;99927.38;;;14.85;nan
5814;BME280;2933;52.302;8.134;2022-09-09T07:03:53;99916.97;;;14.74;nan
5814;BME280;2933;52.302;8.134;2022-09-09T07:09:28;99957.44;;;14.92;nan
5814;BME280;2933;52.302;8.134;2022-09-09T07:14:58;99949.41;;;14.94;nan
5814;BME280;2933;52.302;8.134;2022-09-09T07:20:24;99944.81;;;14.86;nan
5814;BME280;2933;52.302;8.134;2022-09-09T07:25:32;99937.72;;;14.77;nan
5814;BME280;2933;52.302;8.134;2022-09-09T07:30:55;99954.13;;;15.00;nan
5814;BME280;2933;52.302;8.134;2022-09-09T07:36:20;99975.50;;;15.26;nan
5814;BME280;2933;52.302;8.134;2022-09-09T07:41:48;99969.78;;;15.11;nan
5814;BME280;2933;52.302;8.134;2022-09-09T07:47:05;99964.94;;;15.16;nan
5814;BME280;2933;52.302;8.134;2022-09-09T07:52:12;99982.56;;;15.35;nan
5814;BME280;2933;52.302;8.134;2022-09-09T07:57:15;99985.63;;;15.50;nan
5814;BME280;2933;52.302;8.134;2022-09-09T08:02:18;99959.56;;;15.47;nan
5814;BME280;2933;52.302;8.134;2022-09-09T08:07:29;99988.53;;;15.77;nan
5814;BME280;2933;52.302;8.134;2022-09-09T08:12:34;99983.31;;;15.87;nan
5814;BME280;2933;52.302;8.134;2022-09-09T08:17:46;99971.81;;;15.88;nan
5814;BME280;2933;52.302;8.134;2022-09-09T08:23:11;99970.94;;;15.97;nan
5814;BME280;2933;52.302;8.134;2022-09-09T08:29:33;99960.78;;;16.12;nan
5814;BME280;2933;52.302;8.134;2022-09-09T08:34:52;99973.34;;;16.38;nan
5814;BME280;2933;52.302;8.134;2022-09-09T08:40:40;99999.06;;;16.63;nan
5814;BME280;2933;52.302;8.134;2022-09-09T08:51:49;99980.28;;;16.76;nan
5814;BME280;2933;52.302;8.134;2022-09-09T08:57:21;99969.56;;;16.78;nan
5814;BME280;2933;52.302;8.134;2022-09-09T09:02:54;99982.00;;;16.86;nan
5814;BME280;2933;52.302;8.134;2022-09-09T09:08:38;99969.34;;;16.71;nan
5814;BME280;2933;52.302;8.134;2022-09-09T09:14:25;99959.53;;;16.91;nan
5814;BME280;2933;52.302;8.134;2022-09-09T09:19:42;99991.34;;;17.36;nan
5814;BME280;2933;52.302;8.134;2022-09-09T09:25:17;99997.06;;;17.49;nan
5814;BME280;2933;52.302;8.134;2022-09-09T09:31:15;99964.25;;;17.88;nan
5814;BME280;2933;52.302;8.134;2022-09-09T09:48:35;99993.44;;;18.31;nan
5814;BME280;2933;52.302;8.134;2022-09-09T09:53:38;99995.03;;;18.84;nan
5814;BME280;2933;52.302;8.134;2022-09-09T09:58:49;99993.38;;;19.26;nan
5814;BME280;2933;52.302;8.134;2022-09-09T10:03:54;99999.75;;;18.99;nan
5814;BME280;2933;52.302;8.134;2022-09-09T10:08:58;99988.25;;;19.33;nan
5814;BME280;2933;52.302;8.134;2022-09-09T10:14:05;99982.50;;;19.54;nan
5814;BME280;2933;52.302;8.134;2022-09-09T10:19:16;99992.94;;;20.13;nan
5814;BME280;2933;52.302;8.134;2022-09-09T10:24:37;99978.03;;;20.12;nan
5814;BME280;2933;52.302;8.134;2022-09-09T10:29:59;99981.84;;;20.10;nan
5814;BME280;2933;52.302;8.134;2022-09-09T10:35:10;99985.16;;;19.95;nan
5814;BME280;2933;52.302;8.134;2022-09-09T10:40:28;99984.31;;;19.78;nan
5814;BME280;2933;52.302;8.134;2022-09-09T10:45:40;99968.91;;;19.65;nan
5814;BME280;2933;52.302;8.134;2022-09-09T10:50:56;99988.47;;;19.81;nan
5814;BME280;2933;52.302;8.134;2022-09-09T10:56:04;99987.47;;;19.65;nan
5814;BME280;2933;52.302;8.134;2022-09-09T11:01:12;99977.06;;;19.97;nan
5814;BME280;2933;52.302;8.134;2022-09-09T11:06:19;99961.63;;;20.09;nan
5814;BME280;2933;52.302;8.134;2022-09-09T11:11:27;99954.50;;;19.76;nan
5814;BME280;2933;52.302;8.134;2022-09-09T11:16:34;99961.28;;;19.54;nan
5814;BME280;2933;52.302;8.134;2022-09-09T11:21:42;99960.47;;;19.37;nan
5814;BME280;2933;52.302;8.134;2022-09-09T11:26:50;99960.66;;;19.68;nan
5814;BME280;2933;52.302;8.134;2022-09-09T11:32:04;99966.09;;;19.59;nan
5814;BME280;2933;52.302;8.134;2022-09-09T11:37:34;99969.75;;;19.49;nan
5814;BME280;2933;52.302;8.134;2022-09-09T11:42:39;99971.38;;;19.50;nan
5814;BME280;2933;52.302;8.134;2022-09-09T11:47:51;99964.47;;;19.66;nan
5814;BME280;2933;52.302;8.134;2022-09-09T11:53:22;99963.50;;;19.92;nan
5814;BME280;2933;52.302;8.134;2022-09-09T11:58:24;99963.13;;;19.78;nan
5814;BME280;2933;52.302;8.134;2022-09-09T12:03:36;99953.19;;;19.64;nan
5814;BME280;2933;52.302;8.134;2022-09-09T12:08:43;99960.13;;;19.40;nan
5814;BME280;2933;52.302;8.134;2022-09-09T12:13:52;99993.22;;;19.28;nan
5814;BME280;2933;52.302;8.134;2022-09-09T12:19:06;99999.56;;;18.57;nan
5814;BME280;2933;52.302;8.134;2022-09-09T12:24:11;99989.50;;;18.69;nan
5814;BME280;2933;52.302;8.134;2022-09-09T12:29:24;99978.06;;;18.95;nan
5814;BME280;2933;52.302;8.134;2022-09-09T12:34:36;99965.28;;;19.50;nan
5814;BME280;2933;52.302;8.134;2022-09-09T12:39:44;99963.28;;;19.52;nan
5814;BME280;2933;52.302;8.134;2022-09-09T12:44:57;99958.31;;;19.49;nan
5814;BME280;2933;52.302;8.134;2022-09-09T12:49:59;99952.69;;;19.27;nan
5814;BME280;2933;52.302;8.134;2022-09-09T12:55:04;99943.72;;;19.53;nan
5814;BME280;2933;52.302;8.134;2022-09-09T13:00:15;99950.38;;;19.98;nan
5814;BME280;2933;52.302;8.134;2022-09-09T13:05:20;99925.38;;;20.49;nan
5814;BME280;2933;52.302;8.134;2022-09-09T13:10:26;99948.13;;;21.14;nan
5814;BME280;2933;52.302;8.134;2022-09-09T13:15:30;99949.41;;;21.42;nan
5814;BME280;2933;52.302;8.134;2022-09-09T13:20:31;99940.91;;;21.23;nan
5814;BME280;2933;52.302;8.134;2022-09-09T13:25:34;99928.25;;;21.34;nan
5814;BME280;2933;52.302;8.134;2022-09-09T13:30:38;99925.66;;;21.49;nan
5814;BME280;2933;52.302;8.134;2022-09-09T13:35:47;99926.81;;;21.69;nan
5814;BME280;2933;52.302;8.134;2022-09-09T13:40:55;99930.09;;;21.56;nan
5814;BME280;2933;52.302;8.134;2022-09-09T13:45:59;99920.44;;;21.32;nan
5814;BME280;2933;52.302;8.134;2022-09-09T13:51:03;99925.34;;;21.43;nan
5814;BME280;2933;52.302;8.134;2022-09-09T13:56:07;99916.69;;;21.26;nan
5814;BME280;2933;52.302;8.134;2022-09-09T14:01:09;99920.69;;;21.22;nan
5814;BME280;2933;52.302;8.134;2022-09-09T14:06:11;99928.91;;;21.12;nan
5814;BME280;2933;52.302;8.134;2022-09-09T14:11:15;99924.47;;;21.28;nan
5814;BME280;2933;52.302;8.134;2022-09-09T14:16:17;99922.03;;;21.41;nan
5814;BME280;2933;52.302;8.134;2022-09-09T14:21:19;99926.50;;;21.41;nan
5814;BME280;2933;52.302;8.134;2022-09-09T14:26:23;99920.97;;;21.04;nan
5814;BME280;2933;52.302;8.134;2022-09-09T14:31:26;99911.44;;;20.55;nan
5814;BME280;2933;52.302;8.134;2022-09-09T14:36:28;99927.84;;;20.59;nan
5814;BME280;2933;52.302;8.134;2022-09-09T14:41:31;99953.78;;;20.32;nan
5814;BME280;2933;52.302;8.134;2022-09-09T14:46:33;100006.16;;;19.31;nan
5814;BME280;2933;52.302;8.134;2022-09-09T14:51:34;100022.28;;;17.80;nan
5814;BME280;2933;52.302;8.134;2022-09-09T14:56:37;100001.25;;;17.06;nan
5814;BME280;2933;52.302;8.134;2022-09-09T15:01:40;99991.63;;;16.77;nan
5814;BME280;2933;52.302;8.134;2022-09-09T15:06:42;99991.88;;;16.93;nan
5814;BME280;2933;52.302;8.134;2022-09-09T15:11:52;99951.94;;;17.06;nan
5814;BME280;2933;52.302;8.134;2022-09-09T15:16:57;99986.22;;;17.52;nan
5814;BME280;2933;52.302;8.134;2022-09-09T15:22:00;99982.38;;;17.65;nan
5814;BME280;2933;52.302;8.134;2022-09-09T15:27:08;99976.03;;;17.57;nan
5814;BME280;2933;52.302;8.134;2022-09-09T15:32:17;99949.91;;;17.72;nan
5814;BME280;2933;52.302;8.134;2022-09-09T15:37:24;99968.63;;;17.97;nan
5814;BME280;2933;52.302;8.134;2022-09-09T15:42:29;99966.13;;;17.77;nan
5814;BME280;2933;52.302;8.134;2022-09-09T15:47:34;99986.00;;;17.46;nan
5814;BME280;2933;52.302;8.134;2022-09-09T15:52:39;99983.66;;;17.24;nan
5814;BME280;2933;52.302;8.134;2022-09-09T15:57:46;99967.78;;;17.06;nan
5814;BME280;2933;52.302;8.134;2022-09-09T16:02:54;99951.63;;;16.91;nan
5814;BME280;2933;52.302;8.134;2022-09-09T16:07:58;99969.72;;;16.76;nan
5814;BME280;2933;52.302;8.134;2022-09-09T16:13:07;99965.53;;;16.84;nan
5814;BME280;2933;52.302;8.134;2022-09-09T16:18:45;99920.47;;;16.67;nan
5814;BME280;2933;52.302;8.134;2022-09-09T16:23:57;99924.81;;;16.58;nan
5814;BME280;2933;52.302;8.134;2022-09-09T16:29:20;99947.72;;;16.86;nan
5814;BME280;2933;52.302;8.134;2022-09-09T16:34:23;99933.19;;;16.54;nan
5814;BME280;2933;52.302;8.134;2022-09-09T16:39:31;99937.41;;;16.64;nan
5814;BME280;2933;52.302;8.134;2022-09-09T16:44:44;99951.47;;;16.65;nan
5814;BME280;2933;52.302;8.134;2022-09-09T16:49:54;99945.56;;;16.43;nan
5814;BME280;2933;52.302;8.134;2022-09-09T16:54:58;99981.63;;;16.53;nan
5814;BME280;2933;52.302;8.134;2022-09-09T17:00:06;99971.66;;;16.46;nan
5814;BME280;2933;52.302;8.134;2022-09-09T17:05:15;99962.84;;;16.56;nan
5814;BME280;2933;52.302;8.134;2022-09-09T17:10:19;99966.50;;;16.55;nan
5814;BME280;2933;52.302;8.134;2022-09-09T17:15:28;99968.88;;;16.48;nan
5814;BME280;2933;52.302;8.134;2022-09-09T17:20:36;99990.09;;;16.46;nan
5814;BME280;2933;52.302;8.134;2022-09-09T17:25:41;99986.81;;;16.25;nan
5814;BME280;2933;52.302;8.134;2022-09-09T17:30:54;99979.91;;;16.24;nan
5814;BME280;2933;52.302;8.134;2022-09-09T17:36:06;99964.56;;;15.90;nan
5814;BME280;2933;52.302;8.134;2022-09-09T17:41:21;99993.81;;;16.06;nan
5814;BME280;2933;52.302;8.134;2022-09-09T17:46:29;99974.00;;;15.92;nan
5814;BME280;2933;52.302;8.134;2022-09-09T17:51:38;100019.63;;;16.03;nan
5814;BME280;2933;52.302;8.134;2022-09-09T17:56:42;100013.09;;;15.97;nan
5814;BME280;2933;52.302;8.134;2022-09-09T18:02:00;99998.66;;;15.72;nan
5814;BME280;2933;52.302;8.134;2022-09-09T18:12:30;100032.91;;;15.72;nan
5814;BME280;2933;52.302;8.134;2022-09-09T18:17:37;100016.66;;;15.47;nan
5814;BME280;2933;52.302;8.134;2022-09-09T18:22:42;100028.88;;;15.58;nan
5814;BME280;2933;52.302;8.134;2022-09-09T18:27:51;100001.41;;;15.41;nan
5814;BME280;2933;52.302;8.134;2022-09-09T18:33:22;100000.16;;;15.45;nan
5814;BME280;2933;52.302;8.134;2022-09-09T18:38:44;100020.41;;;15.44;nan
5814;BME280;2933;52.302;8.134;2022-09-09T18:44:01;100052.41;;;15.49;nan
5814;BME280;2933;52.302;8.134;2022-09-09T18:49:33;100009.44;;;15.29;nan
5814;BME280;2933;52.302;8.134;2022-09-09T18:54:44;100028.25;;;15.25;nan
5814;BME280;2933;52.302;8.134;2022-09-09T19:00:10;100040.03;;;15.21;nan
5814;BME280;2933;52.302;8.134;2022-09-09T19:05:48;100068.75;;;15.43;nan
5814;BME280;2933;52.302;8.134;2022-09-09T19:11:07;100031.56;;;15.17;nan
5814;BME280;2933;52.302;8.134;2022-09-09T19:21:29;100066.25;;;15.42;nan
5814;BME280;2933;52.302;8.134;2022-09-09T19:26:34;100076.63;;;15.33;nan
5814;BME280;2933;52.302;8.134;2022-09-09T19:31:39;100073.00;;;15.25;nan
5814;BME280;2933;52.302;8.134;2022-09-09T19:36:42;100069.50;;;15.14;nan
5814;BME280;2933;52.302;8.134;2022-09-09T19:41:44;100078.78;;;15.18;nan
5814;BME280;2933;52.302;8.134;2022-09-09T19:46:46;100075.03;;;15.11;nan
5814;BME280;2933;52.302;8.134;2022-09-09T19:51:52;100054.88;;;14.91;nan
5814;BME280;2933;52.302;8.134;2022-09-09T19:56:55;100076.94;;;15.09;nan
5814;BME280;2933;52.302;8.134;2022-09-09T20:01:56;100074.28;;;14.99;nan
5814;BME280;2933;52.302;8.134;2022-09-09T20:06:59;100077.03;;;14.98;nan
5814;BME280;2933;52.302;8.134;2022-09-09T20:12:01;100067.41;;;14.77;nan
5814;BME280;2933;52.302;8.134;2022-09-09T20:17:03;100065.84;;;14.96;nan
5814;BME280;2933;52.302;8.134;2022-09-09T20:22:06;100061.34;;;14.86;nan
5814;BME280;2933;52.302;8.134;2022-09-09T20:27:07;100082.72;;;14.93;nan
5814;BME280;2933;52.302;8.134;2022-09-09T20:32:09;100074.88;;;14.82;nan
5814;BME280;2933;52.302;8.134;2022-09-09T20:37:12;100079.47;;;14.80;nan
5814;BME280;2933;52.302;8.134;2022-09-09T20:42:14;100075.47;;;14.85;nan
5814;BME280;2933;52.302;8.134;2022-09-09T20:47:18;100070.63;;;14.81;nan
5814;BME280;2933;52.302;8.134;2022-09-09T20:52:21;100081.88;;;14.93;nan
5814;BME280;2933;52.302;8.134;2022-09-09T20:57:23;100086.78;;;15.07;nan
5814;BME280;2933;52.302;8.134;2022-09-09T21:02:24;100078.59;;;15.10;nan
5814;BME280;2933;52.302;8.134;2022-09-09T21:07:27;100073.88;;;15.04;nan
5814;BME280;2933;52.302;8.134;2022-09-09T21:12:29;100077.25;;;15.16;nan
5814;BME280;2933;52.302;8.134;2022-09-09T21:17:31;100082.25;;;15.19;nan
5814;BME280;2933;52.302;8.134;2022-09-09T21:22:34;100081.94;;;15.12;nan
5814;BME280;2933;52.302;8.134;2022-09-09T21:27:35;100074.53;;;14.96;nan
5814;BME280;2933;52.302;8.134;2022-09-09T21:32:37;100072.56;;;14.89;nan
5814;BME280;2933;52.302;8.134;2022-09-09T21:37:40;100079.75;;;14.86;nan
5814;BME280;2933;52.302;8.134;2022-09-09T21:42:42;100076.88;;;14.90;nan
5814;BME280;2933;52.302;8.134;2022-09-09T21:47:44;100053.56;;;14.75;nan
5814;BME280;2933;52.302;8.134;2022-09-09T21:52:49;100093.09;;;14.95;nan
5814;BME280;2933;52.302;8.134;2022-09-09T21:57:50;100081.72;;;14.84;nan
5814;BME280;2933;52.302;8.134;2022-09-09T22:02:52;100098.00;;;14.78;nan
5814;BME280;2933;52.302;8.134;2022-09-09T22:07:54;100090.78;;;14.80;nan
5814;BME280;2933;52.302;8.134;2022-09-09T22:12:56;100102.25;;;14.69;nan
5814;BME280;2933;52.302;8.134;2022-09-09T22:17:58;100099.53;;;14.81;nan
5814;BME280;2933;52.302;8.134;2022-09-09T22:23:03;100110.22;;;14.89;nan
5814;BME280;2933;52.302;8.134;2022-09-09T22:28:07;100107.88;;;14.86;nan
5814;BME280;2933;52.302;8.134;2022-09-09T22:33:09;100111.41;;;14.75;nan
5814;BME280;2933;52.302;8.134;2022-09-09T22:38:12;100098.09;;;14.55;nan
5814;BME280;2933;52.302;8.134;2022-09-09T22:43:15;100116.41;;;14.57;nan
5814;BME280;2933;52.302;8.134;2022-09-09T22:48:18;100119.06;;;14.46;nan
5814;BME280;2933;52.302;8.134;2022-09-09T22:53:21;100119.91;;;14.46;nan
5814;BME280;2933;52.302;8.134;2022-09-09T22:58:23;100116.19;;;14.49;nan
5814;BME280;2933;52.302;8.134;2022-09-09T23:03:25;100114.88;;;14.43;nan
5814;BME280;2933;52.302;8.134;2022-09-09T23:08:30;100122.03;;;14.52;nan
5814;BME280;2933;52.302;8.134;2022-09-09T23:13:32;100124.59;;;14.64;nan
5814;BME280;2933;52.302;8.134;2022-09-09T23:18:34;100122.19;;;14.61;nan
5814;BME280;2933;52.302;8.134;2022-09-09T23:23:38;100113.44;;;14.72;nan
5814;BME280;2933;52.302;8.134;2022-09-09T23:28:41;100116.53;;;14.77;nan
5814;BME280;2933;52.302;8.134;2022-09-09T23:33:43;100102.41;;;14.78;nan
5814;BME280;2933;52.302;8.134;2022-09-09T23:38:46;100117.16;;;14.90;nan
5814;BME280;2933;52.302;8.134;2022-09-09T23:43:49;100119.06;;;14.88;nan
5814;BME280;2933;52.302;8.134;2022-09-09T23:48:52;100109.16;;;15.01;nan
5814;BME280;2933;52.302;8.134;2022-09-09T23:53:56;100114.00;;;14.96;nan
5814;BME280;2933;52.302;8.134;2022-09-09T23:58:59;100107.34;;;14.92;nan
